N23GC TIST-KEWR
Flight info
| Callsign | N23GC |
|---|---|
| Flight time | N/A |
| Altitude | 40000 |
| Route | PALCO7 PALCO RTE6 SJU DCT ACONY Y185 DOZGO/N0486F430 Y185 DONQU/N0487F410 DCT LUCTI/M086F430 L454 OKONU/N0488F410 DCT YAALE Y497 MOUGH/N0487F430 Y497 SUBBS DCT CYN DCT GXU DCT RBV V249 METRO PHLBO4 |
| Aircraft | A359/H-SDE2E3GHIJ3J4J5LM1ORWXY/LB1D1 |
Departure
| Time | 2026-05-06 01:31 |
|---|---|
| Airport | Cyril E. King Airport (TIST) |
Arrival
| Time | N/A |
|---|---|
| Airport | Newark Liberty International Airport (KEWR) |
| Time | Latitude | Longitude | Altitude | Speed | Heading |
|---|---|---|---|---|---|
| 2026-05-06 00:45 | 18.33590 | -64.97255 | 38 ft | 0 kts | 178° |
| 2026-05-06 01:19 | 18.33603 | -64.97256 | 37 ft | 3 kts | 178° |
| 2026-05-06 01:19 | 18.33623 | -64.97255 | 38 ft | 4 kts | 203° |
| 2026-05-06 01:20 | 18.33640 | -64.97243 | 35 ft | 4 kts | 242° |
| 2026-05-06 01:20 | 18.33649 | -64.97218 | 36 ft | 4 kts | 261° |
| 2026-05-06 01:20 | 18.33651 | -64.97197 | 35 ft | 1 kts | 266° |
| 2026-05-06 01:20 | 18.33651 | -64.97194 | 35 ft | 0 kts | 266° |
| 2026-05-06 01:26 | 18.33651 | -64.97201 | 38 ft | 4 kts | 266° |
| 2026-05-06 01:26 | 18.33648 | -64.97244 | 38 ft | 8 kts | 266° |
| 2026-05-06 01:26 | 18.33644 | -64.97319 | 38 ft | 12 kts | 266° |
| 2026-05-06 01:26 | 18.33637 | -64.97399 | 38 ft | 11 kts | 262° |
| 2026-05-06 01:27 | 18.33626 | -64.97491 | 38 ft | 15 kts | 262° |
| 2026-05-06 01:27 | 18.33613 | -64.97592 | 38 ft | 10 kts | 262° |
| 2026-05-06 01:27 | 18.33606 | -64.97678 | 38 ft | 13 kts | 267° |
| 2026-05-06 01:27 | 18.33603 | -64.97778 | 38 ft | 14 kts | 267° |
| 2026-05-06 01:28 | 18.33600 | -64.97835 | 38 ft | 9 kts | 266° |
| 2026-05-06 01:28 | 18.33595 | -64.97915 | 38 ft | 13 kts | 266° |
| 2026-05-06 01:28 | 18.33590 | -64.98018 | 38 ft | 14 kts | 270° |
| 2026-05-06 01:28 | 18.33587 | -64.98128 | 38 ft | 14 kts | 267° |
| 2026-05-06 01:29 | 18.33582 | -64.98223 | 38 ft | 15 kts | 267° |
| 2026-05-06 01:29 | 18.33588 | -64.98302 | 38 ft | 0 kts | 294° |
| 2026-05-06 01:29 | 18.33590 | -64.98304 | 38 ft | 0 kts | 298° |
| 2026-05-06 01:30 | 18.33624 | -64.98326 | 38 ft | 2 kts | 342° |
| 2026-05-06 01:30 | 18.33647 | -64.98328 | 38 ft | 6 kts | 353° |
| 2026-05-06 01:30 | 18.33684 | -64.98294 | 36 ft | 7 kts | 65° |
| 2026-05-06 01:30 | 18.33685 | -64.98282 | 36 ft | 0 kts | 84° |
| 2026-05-06 01:31 | 18.33688 | -64.98260 | 36 ft | 19 kts | 84° |
| 2026-05-06 01:31 | 18.33709 | -64.97797 | 39 ft | 104 kts | 87° |
| 2026-05-06 01:31 | 18.33762 | -64.96784 | 167 ft | 161 kts | 87° |
| 2026-05-06 01:31 | 18.33814 | -64.95664 | 1167 ft | 144 kts | 90° |
| 2026-05-06 01:32 | 18.33606 | -64.94634 | 2018 ft | 147 kts | 113° |
| 2026-05-06 01:32 | 18.32963 | -64.93749 | 2672 ft | 159 kts | 139° |
| 2026-05-06 01:32 | 18.31941 | -64.93227 | 3171 ft | 185 kts | 160° |
| 2026-05-06 01:32 | 18.30497 | -64.93072 | 2954 ft | 233 kts | 182° |
| 2026-05-06 01:33 | 18.28823 | -64.93521 | 2992 ft | 261 kts | 201° |
| 2026-05-06 01:33 | 18.27261 | -64.94545 | 3032 ft | 269 kts | 217° |
| 2026-05-06 01:33 | 18.25994 | -64.96003 | 3074 ft | 272 kts | 232° |
| 2026-05-06 01:33 | 18.25260 | -64.97830 | 3062 ft | 275 kts | 263° |
| 2026-05-06 01:34 | 18.25549 | -64.99820 | 3380 ft | 281 kts | 291° |
| 2026-05-06 01:34 | 18.26074 | -65.01805 | 4253 ft | 282 kts | 279° |
| 2026-05-06 01:34 | 18.26398 | -65.03845 | 5355 ft | 282 kts | 278° |
| 2026-05-06 01:34 | 18.26696 | -65.05895 | 6385 ft | 285 kts | 278° |
| 2026-05-06 01:35 | 18.26992 | -65.07972 | 7335 ft | 288 kts | 278° |
| 2026-05-06 01:35 | 18.27284 | -65.10045 | 8277 ft | 292 kts | 278° |
| 2026-05-06 01:35 | 18.27582 | -65.12169 | 9332 ft | 295 kts | 278° |
| 2026-05-06 01:35 | 18.27881 | -65.14311 | 10337 ft | 299 kts | 278° |
| 2026-05-06 01:36 | 18.28195 | -65.16552 | 10874 ft | 321 kts | 278° |
| 2026-05-06 01:36 | 18.28530 | -65.18956 | 11273 ft | 344 kts | 278° |
| 2026-05-06 01:36 | 18.28886 | -65.21504 | 11827 ft | 357 kts | 278° |
| 2026-05-06 01:36 | 18.29249 | -65.24110 | 12589 ft | 363 kts | 278° |
| 2026-05-06 01:37 | 18.29689 | -65.26750 | 13397 ft | 367 kts | 281° |
| 2026-05-06 01:37 | 18.30231 | -65.29395 | 14172 ft | 371 kts | 283° |
| 2026-05-06 01:37 | 18.30819 | -65.32049 | 14917 ft | 373 kts | 283° |
| 2026-05-06 01:37 | 18.31416 | -65.34717 | 15695 ft | 375 kts | 283° |
| 2026-05-06 01:38 | 18.32006 | -65.37396 | 16469 ft | 377 kts | 283° |
| 2026-05-06 01:38 | 18.32586 | -65.40100 | 17222 ft | 380 kts | 283° |
| 2026-05-06 01:38 | 18.33160 | -65.42827 | 17977 ft | 383 kts | 282° |
| 2026-05-06 01:38 | 18.33731 | -65.45585 | 18686 ft | 387 kts | 282° |
| 2026-05-06 01:39 | 18.34295 | -65.48326 | 19333 ft | 391 kts | 282° |
| 2026-05-06 01:39 | 18.34875 | -65.51158 | 19991 ft | 395 kts | 282° |
| 2026-05-06 01:39 | 18.35458 | -65.54005 | 20665 ft | 399 kts | 283° |
| 2026-05-06 01:39 | 18.36048 | -65.56882 | 21328 ft | 403 kts | 283° |
| 2026-05-06 01:40 | 18.36644 | -65.59791 | 22004 ft | 407 kts | 283° |
| 2026-05-06 01:40 | 18.37237 | -65.62684 | 22652 ft | 411 kts | 283° |
| 2026-05-06 01:40 | 18.37842 | -65.65638 | 23311 ft | 415 kts | 283° |
| 2026-05-06 01:40 | 18.38454 | -65.68624 | 23916 ft | 419 kts | 283° |
| 2026-05-06 01:41 | 18.39070 | -65.71634 | 24466 ft | 422 kts | 283° |
| 2026-05-06 01:41 | 18.39690 | -65.74667 | 25036 ft | 426 kts | 282° |
| 2026-05-06 01:41 | 18.40315 | -65.77723 | 25656 ft | 429 kts | 282° |
| 2026-05-06 01:41 | 18.40944 | -65.80804 | 26273 ft | 432 kts | 282° |
| 2026-05-06 01:42 | 18.41578 | -65.83915 | 26881 ft | 436 kts | 282° |
| 2026-05-06 01:42 | 18.42214 | -65.87041 | 27497 ft | 439 kts | 281° |
| 2026-05-06 01:42 | 18.42855 | -65.90193 | 28102 ft | 442 kts | 281° |
| 2026-05-06 01:42 | 18.43523 | -65.93368 | 28700 ft | 446 kts | 283° |
| 2026-05-06 01:43 | 18.44500 | -65.96494 | 29283 ft | 451 kts | 291° |
| 2026-05-06 01:43 | 18.45929 | -65.99442 | 29842 ft | 457 kts | 300° |
| 2026-05-06 01:43 | 18.47853 | -66.02144 | 30355 ft | 464 kts | 310° |
| 2026-05-06 01:43 | 18.50094 | -66.04615 | 30777 ft | 469 kts | 312° |
| 2026-05-06 01:44 | 18.52438 | -66.07024 | 31222 ft | 473 kts | 313° |
| 2026-05-06 01:44 | 18.54808 | -66.09387 | 31659 ft | 477 kts | 314° |
| 2026-05-06 01:44 | 18.57235 | -66.11788 | 32074 ft | 480 kts | 314° |
| 2026-05-06 01:44 | 18.59674 | -66.14209 | 32489 ft | 483 kts | 313° |
| 2026-05-06 01:45 | 18.62122 | -66.16655 | 32893 ft | 486 kts | 313° |
| 2026-05-06 01:45 | 18.64574 | -66.19122 | 33273 ft | 489 kts | 313° |
| 2026-05-06 01:45 | 18.67040 | -66.21616 | 33656 ft | 492 kts | 313° |
| 2026-05-06 01:45 | 18.69518 | -66.24129 | 34027 ft | 494 kts | 312° |
| 2026-05-06 01:46 | 18.71995 | -66.26642 | 34483 ft | 493 kts | 312° |
| 2026-05-06 01:46 | 18.74457 | -66.29141 | 35041 ft | 489 kts | 312° |
| 2026-05-06 01:46 | 18.76905 | -66.31625 | 35571 ft | 486 kts | 312° |
| 2026-05-06 01:46 | 18.79335 | -66.34093 | 36089 ft | 484 kts | 312° |
| 2026-05-06 01:47 | 18.81748 | -66.36545 | 36582 ft | 482 kts | 311° |
| 2026-05-06 01:47 | 18.84169 | -66.39007 | 37080 ft | 480 kts | 311° |
| 2026-05-06 01:47 | 18.86541 | -66.41420 | 37534 ft | 479 kts | 311° |
| 2026-05-06 01:47 | 18.88932 | -66.43854 | 37994 ft | 477 kts | 311° |
| 2026-05-06 01:48 | 18.91315 | -66.46280 | 38467 ft | 475 kts | 311° |
| 2026-05-06 01:48 | 18.93685 | -66.48690 | 38888 ft | 474 kts | 311° |
| 2026-05-06 01:48 | 18.96138 | -66.51043 | 39263 ft | 474 kts | 314° |
| 2026-05-06 01:48 | 18.98634 | -66.53304 | 39638 ft | 472 kts | 315° |
| 2026-05-06 01:49 | 19.01152 | -66.55536 | 39970 ft | 472 kts | 315° |
| 2026-05-06 01:49 | 19.03670 | -66.57767 | 40088 ft | 471 kts | 315° |
| 2026-05-06 01:49 | 19.08661 | -66.62240 | 40189 ft | 470 kts | 314° |
| 2026-05-06 01:50 | 19.11142 | -66.64491 | 40464 ft | 470 kts | 314° |
| 2026-05-06 01:50 | 19.13613 | -66.66741 | 40827 ft | 467 kts | 314° |
| 2026-05-06 01:50 | 19.16041 | -66.68957 | 41190 ft | 465 kts | 314° |
| 2026-05-06 01:50 | 19.18485 | -66.71191 | 41532 ft | 463 kts | 314° |
| 2026-05-06 01:51 | 19.20324 | -66.72872 | 41796 ft | 462 kts | 314° |
| 2026-05-06 01:51 | 19.22751 | -66.75091 | 42118 ft | 460 kts | 314° |
| 2026-05-06 01:51 | 19.25157 | -66.77293 | 42443 ft | 459 kts | 314° |
| 2026-05-06 01:51 | 19.27578 | -66.79508 | 42756 ft | 457 kts | 314° |
| 2026-05-06 01:52 | 19.29985 | -66.81710 | 43031 ft | 456 kts | 314° |
| 2026-05-06 01:52 | 19.32382 | -66.83905 | 43099 ft | 456 kts | 314° |
| 2026-05-06 01:52 | 19.37189 | -66.88308 | 43100 ft | 455 kts | 314° |
| 2026-05-06 01:53 | 19.41976 | -66.92697 | 43095 ft | 455 kts | 314° |
| 2026-05-06 01:53 | 19.46732 | -66.97059 | 43094 ft | 455 kts | 314° |
| 2026-05-06 01:54 | 19.51505 | -67.01442 | 43098 ft | 455 kts | 314° |
| 2026-05-06 01:54 | 19.56333 | -67.05808 | 43095 ft | 457 kts | 317° |
| 2026-05-06 01:55 | 19.61897 | -67.09202 | 43101 ft | 469 kts | 333° |
| 2026-05-06 01:55 | 19.68208 | -67.11154 | 43104 ft | 476 kts | 341° |
| 2026-05-06 01:56 | 19.74698 | -67.12680 | 43101 ft | 477 kts | 342° |
| 2026-05-06 01:56 | 19.81186 | -67.14163 | 43102 ft | 477 kts | 342° |